sensor_id;sensor_type;location;lat;lon;timestamp;temperature;humidity
51801;DHT22;37855;53.204;6.568;2022-07-10T00:00:28;14.80;84.50
51801;DHT22;37855;53.204;6.568;2022-07-10T00:02:55;14.90;84.30
51801;DHT22;37855;53.204;6.568;2022-07-10T00:05:22;14.80;83.70
51801;DHT22;37855;53.204;6.568;2022-07-10T00:07:48;14.80;83.20
51801;DHT22;37855;53.204;6.568;2022-07-10T00:10:15;14.90;83.00
51801;DHT22;37855;53.204;6.568;2022-07-10T00:12:40;14.80;82.80
51801;DHT22;37855;53.204;6.568;2022-07-10T00:15:07;14.80;82.30
51801;DHT22;37855;53.204;6.568;2022-07-10T00:17:33;14.80;81.80
51801;DHT22;37855;53.204;6.568;2022-07-10T00:19:59;14.80;81.60
51801;DHT22;37855;53.204;6.568;2022-07-10T00:22:25;14.80;81.40
51801;DHT22;37855;53.204;6.568;2022-07-10T00:24:51;14.80;81.20
51801;DHT22;37855;53.204;6.568;2022-07-10T00:27:20;14.80;81.20
51801;DHT22;37855;53.204;6.568;2022-07-10T00:29:46;14.70;81.30
51801;DHT22;37855;53.204;6.568;2022-07-10T00:32:11;14.80;81.50
51801;DHT22;37855;53.204;6.568;2022-07-10T00:34:37;14.80;81.50
51801;DHT22;37855;53.204;6.568;2022-07-10T00:37:04;14.80;81.80
51801;DHT22;37855;53.204;6.568;2022-07-10T00:39:30;14.70;82.00
51801;DHT22;37855;53.204;6.568;2022-07-10T00:42:09;14.80;82.30
51801;DHT22;37855;53.204;6.568;2022-07-10T00:44:36;14.70;83.00
51801;DHT22;37855;53.204;6.568;2022-07-10T00:47:06;14.80;83.40
51801;DHT22;37855;53.204;6.568;2022-07-10T00:49:33;14.70;84.30
51801;DHT22;37855;53.204;6.568;2022-07-10T00:52:00;14.70;84.50
51801;DHT22;37855;53.204;6.568;2022-07-10T00:54:30;14.70;84.90
51801;DHT22;37855;53.204;6.568;2022-07-10T00:56:57;14.70;86.60
51801;DHT22;37855;53.204;6.568;2022-07-10T00:59:26;14.70;85.80
51801;DHT22;37855;53.204;6.568;2022-07-10T01:01:52;14.60;86.70
51801;DHT22;37855;53.204;6.568;2022-07-10T01:04:18;14.60;86.70
51801;DHT22;37855;53.204;6.568;2022-07-10T01:06:44;14.60;87.20
51801;DHT22;37855;53.204;6.568;2022-07-10T01:09:13;14.60;86.90
51801;DHT22;37855;53.204;6.568;2022-07-10T01:11:39;14.60;87.10
51801;DHT22;37855;53.204;6.568;2022-07-10T01:14:05;14.60;86.70
51801;DHT22;37855;53.204;6.568;2022-07-10T01:16:31;14.60;86.50
51801;DHT22;37855;53.204;6.568;2022-07-10T01:18:57;14.50;86.10
51801;DHT22;37855;53.204;6.568;2022-07-10T01:21:31;14.60;85.90
51801;DHT22;37855;53.204;6.568;2022-07-10T01:24:04;14.50;85.60
51801;DHT22;37855;53.204;6.568;2022-07-10T01:26:30;14.50;85.20
51801;DHT22;37855;53.204;6.568;2022-07-10T01:28:56;14.50;84.70
51801;DHT22;37855;53.204;6.568;2022-07-10T01:31:31;14.50;84.70
51801;DHT22;37855;53.204;6.568;2022-07-10T01:33:57;14.50;84.30
51801;DHT22;37855;53.204;6.568;2022-07-10T01:36:24;14.40;84.00
51801;DHT22;37855;53.204;6.568;2022-07-10T01:38:54;14.40;83.80
51801;DHT22;37855;53.204;6.568;2022-07-10T01:41:20;14.40;83.70
51801;DHT22;37855;53.204;6.568;2022-07-10T01:43:45;14.50;83.60
51801;DHT22;37855;53.204;6.568;2022-07-10T01:46:13;14.50;83.30
51801;DHT22;37855;53.204;6.568;2022-07-10T01:48:39;14.50;83.10
51801;DHT22;37855;53.204;6.568;2022-07-10T01:51:06;14.40;82.80
51801;DHT22;37855;53.204;6.568;2022-07-10T01:53:32;14.50;82.80
51801;DHT22;37855;53.204;6.568;2022-07-10T01:55:58;14.40;82.80
51801;DHT22;37855;53.204;6.568;2022-07-10T01:58:25;14.40;82.50
51801;DHT22;37855;53.204;6.568;2022-07-10T02:00:51;14.40;82.40
51801;DHT22;37855;53.204;6.568;2022-07-10T02:03:17;14.40;82.40
51801;DHT22;37855;53.204;6.568;2022-07-10T02:06:01;14.40;82.30
51801;DHT22;37855;53.204;6.568;2022-07-10T02:08:26;14.30;82.30
51801;DHT22;37855;53.204;6.568;2022-07-10T02:10:52;14.30;82.50
51801;DHT22;37855;53.204;6.568;2022-07-10T02:13:17;14.30;82.80
51801;DHT22;37855;53.204;6.568;2022-07-10T02:15:47;14.30;83.00
51801;DHT22;37855;53.204;6.568;2022-07-10T02:18:13;14.30;83.20
51801;DHT22;37855;53.204;6.568;2022-07-10T02:20:45;14.20;83.40
51801;DHT22;37855;53.204;6.568;2022-07-10T02:23:11;14.20;83.80
51801;DHT22;37855;53.204;6.568;2022-07-10T02:25:37;14.20;83.80
51801;DHT22;37855;53.204;6.568;2022-07-10T02:28:03;14.10;84.10
51801;DHT22;37855;53.204;6.568;2022-07-10T02:30:30;14.20;84.00
51801;DHT22;37855;53.204;6.568;2022-07-10T02:32:56;14.20;83.70
51801;DHT22;37855;53.204;6.568;2022-07-10T02:35:22;14.20;83.50
51801;DHT22;37855;53.204;6.568;2022-07-10T02:37:48;14.30;83.10
51801;DHT22;37855;53.204;6.568;2022-07-10T02:40:13;14.20;82.90
51801;DHT22;37855;53.204;6.568;2022-07-10T02:42:40;14.20;82.70
51801;DHT22;37855;53.204;6.568;2022-07-10T02:45:06;14.20;82.30
51801;DHT22;37855;53.204;6.568;2022-07-10T02:47:32;14.30;82.00
51801;DHT22;37855;53.204;6.568;2022-07-10T02:49:58;14.40;82.00
51801;DHT22;37855;53.204;6.568;2022-07-10T02:52:25;14.30;81.90
51801;DHT22;37855;53.204;6.568;2022-07-10T02:54:52;14.30;81.80
51801;DHT22;37855;53.204;6.568;2022-07-10T02:57:18;14.30;81.80
51801;DHT22;37855;53.204;6.568;2022-07-10T02:59:44;14.30;81.80
51801;DHT22;37855;53.204;6.568;2022-07-10T03:02:11;14.30;81.70
51801;DHT22;37855;53.204;6.568;2022-07-10T03:04:37;14.40;81.80
51801;DHT22;37855;53.204;6.568;2022-07-10T03:07:03;14.40;81.70
51801;DHT22;37855;53.204;6.568;2022-07-10T03:09:31;14.40;81.90
51801;DHT22;37855;53.204;6.568;2022-07-10T03:11:57;14.30;82.00
51801;DHT22;37855;53.204;6.568;2022-07-10T03:14:22;14.30;82.20
51801;DHT22;37855;53.204;6.568;2022-07-10T03:16:48;14.30;82.30
51801;DHT22;37855;53.204;6.568;2022-07-10T03:19:14;14.30;82.30
51801;DHT22;37855;53.204;6.568;2022-07-10T03:21:40;14.40;82.60
51801;DHT22;37855;53.204;6.568;2022-07-10T03:24:05;14.30;82.40
51801;DHT22;37855;53.204;6.568;2022-07-10T03:26:32;14.40;82.60
51801;DHT22;37855;53.204;6.568;2022-07-10T03:28:58;14.40;82.90
51801;DHT22;37855;53.204;6.568;2022-07-10T03:31:27;14.40;83.10
51801;DHT22;37855;53.204;6.568;2022-07-10T03:33:55;14.30;83.20
51801;DHT22;37855;53.204;6.568;2022-07-10T03:36:30;14.40;83.50
51801;DHT22;37855;53.204;6.568;2022-07-10T03:38:55;14.40;83.50
51801;DHT22;37855;53.204;6.568;2022-07-10T03:41:21;14.50;83.70
51801;DHT22;37855;53.204;6.568;2022-07-10T03:43:47;14.40;83.80
51801;DHT22;37855;53.204;6.568;2022-07-10T03:46:13;14.50;84.10
51801;DHT22;37855;53.204;6.568;2022-07-10T03:48:38;14.50;84.20
51801;DHT22;37855;53.204;6.568;2022-07-10T03:51:04;14.50;84.50
51801;DHT22;37855;53.204;6.568;2022-07-10T03:53:32;14.60;84.70
51801;DHT22;37855;53.204;6.568;2022-07-10T03:55:58;14.60;84.80
51801;DHT22;37855;53.204;6.568;2022-07-10T03:58:25;14.70;85.00
51801;DHT22;37855;53.204;6.568;2022-07-10T04:00:51;14.70;85.20
51801;DHT22;37855;53.204;6.568;2022-07-10T04:03:17;15.10;86.10
51801;DHT22;37855;53.204;6.568;2022-07-10T04:05:44;14.80;85.90
51801;DHT22;37855;53.204;6.568;2022-07-10T04:08:10;14.80;86.40
51801;DHT22;37855;53.204;6.568;2022-07-10T04:10:36;14.80;87.40
51801;DHT22;37855;53.204;6.568;2022-07-10T04:13:02;14.80;86.70
51801;DHT22;37855;53.204;6.568;2022-07-10T04:15:28;14.80;87.10
51801;DHT22;37855;53.204;6.568;2022-07-10T04:17:54;14.80;87.20
51801;DHT22;37855;53.204;6.568;2022-07-10T04:20:20;14.80;87.80
51801;DHT22;37855;53.204;6.568;2022-07-10T04:22:47;14.90;88.00
51801;DHT22;37855;53.204;6.568;2022-07-10T04:25:16;14.90;88.60
51801;DHT22;37855;53.204;6.568;2022-07-10T04:27:41;14.90;89.30
51801;DHT22;37855;53.204;6.568;2022-07-10T04:30:09;14.90;89.60
51801;DHT22;37855;53.204;6.568;2022-07-10T04:32:40;14.90;90.10
51801;DHT22;37855;53.204;6.568;2022-07-10T04:35:08;14.90;90.30
51801;DHT22;37855;53.204;6.568;2022-07-10T04:37:37;15.00;90.20
51801;DHT22;37855;53.204;6.568;2022-07-10T04:40:04;15.00;90.20
51801;DHT22;37855;53.204;6.568;2022-07-10T04:42:32;15.00;89.90
51801;DHT22;37855;53.204;6.568;2022-07-10T04:44:58;15.00;89.20
51801;DHT22;37855;53.204;6.568;2022-07-10T04:47:23;15.00;88.60
51801;DHT22;37855;53.204;6.568;2022-07-10T04:49:49;15.10;88.40
51801;DHT22;37855;53.204;6.568;2022-07-10T04:52:15;15.00;87.60
51801;DHT22;37855;53.204;6.568;2022-07-10T04:57:16;15.10;86.90
51801;DHT22;37855;53.204;6.568;2022-07-10T04:59:44;15.10;86.20
51801;DHT22;37855;53.204;6.568;2022-07-10T05:02:10;15.10;86.10
51801;DHT22;37855;53.204;6.568;2022-07-10T05:04:36;15.20;85.90
51801;DHT22;37855;53.204;6.568;2022-07-10T05:07:01;15.20;85.20
51801;DHT22;37855;53.204;6.568;2022-07-10T05:09:27;15.20;84.50
51801;DHT22;37855;53.204;6.568;2022-07-10T05:11:54;15.20;84.10
51801;DHT22;37855;53.204;6.568;2022-07-10T05:14:20;15.30;83.60
51801;DHT22;37855;53.204;6.568;2022-07-10T05:16:47;15.30;83.80
51801;DHT22;37855;53.204;6.568;2022-07-10T05:19:17;15.30;83.80
51801;DHT22;37855;53.204;6.568;2022-07-10T05:24:20;15.30;84.10
51801;DHT22;37855;53.204;6.568;2022-07-10T05:26:46;15.30;84.20
51801;DHT22;37855;53.204;6.568;2022-07-10T05:29:12;15.30;84.30
51801;DHT22;37855;53.204;6.568;2022-07-10T05:31:37;15.30;84.40
51801;DHT22;37855;53.204;6.568;2022-07-10T05:34:03;15.30;84.50
51801;DHT22;37855;53.204;6.568;2022-07-10T05:36:30;15.40;84.70
51801;DHT22;37855;53.204;6.568;2022-07-10T05:38:56;15.40;84.80
51801;DHT22;37855;53.204;6.568;2022-07-10T05:41:21;15.40;85.20
51801;DHT22;37855;53.204;6.568;2022-07-10T05:43:47;15.40;85.50
51801;DHT22;37855;53.204;6.568;2022-07-10T05:46:13;15.40;85.60
51801;DHT22;37855;53.204;6.568;2022-07-10T05:48:38;15.50;86.20
51801;DHT22;37855;53.204;6.568;2022-07-10T05:51:04;15.50;87.50
51801;DHT22;37855;53.204;6.568;2022-07-10T05:53:30;15.40;86.80
51801;DHT22;37855;53.204;6.568;2022-07-10T05:56:00;15.60;87.90
51801;DHT22;37855;53.204;6.568;2022-07-10T05:58:29;15.60;88.30
51801;DHT22;37855;53.204;6.568;2022-07-10T06:00:57;15.50;88.40
51801;DHT22;37855;53.204;6.568;2022-07-10T06:03:23;15.40;88.80
51801;DHT22;37855;53.204;6.568;2022-07-10T06:05:52;15.50;89.60
51801;DHT22;37855;53.204;6.568;2022-07-10T06:08:18;15.50;89.70
51801;DHT22;37855;53.204;6.568;2022-07-10T06:10:44;15.50;89.70
51801;DHT22;37855;53.204;6.568;2022-07-10T06:13:13;15.50;90.10
51801;DHT22;37855;53.204;6.568;2022-07-10T06:15:41;15.50;90.30
51801;DHT22;37855;53.204;6.568;2022-07-10T06:18:10;15.40;90.50
51801;DHT22;37855;53.204;6.568;2022-07-10T06:20:35;15.40;90.80
51801;DHT22;37855;53.204;6.568;2022-07-10T06:23:01;15.40;91.00
51801;DHT22;37855;53.204;6.568;2022-07-10T06:25:27;15.40;91.00
51801;DHT22;37855;53.204;6.568;2022-07-10T06:27:52;15.40;91.10
51801;DHT22;37855;53.204;6.568;2022-07-10T06:30:18;15.40;91.30
51801;DHT22;37855;53.204;6.568;2022-07-10T06:32:44;15.40;91.30
51801;DHT22;37855;53.204;6.568;2022-07-10T06:35:10;15.40;91.40
51801;DHT22;37855;53.204;6.568;2022-07-10T06:37:38;15.40;91.60
51801;DHT22;37855;53.204;6.568;2022-07-10T06:40:06;15.40;92.10
51801;DHT22;37855;53.204;6.568;2022-07-10T06:42:34;15.40;92.20
51801;DHT22;37855;53.204;6.568;2022-07-10T06:45:00;15.40;92.50
51801;DHT22;37855;53.204;6.568;2022-07-10T06:47:26;15.50;92.60
51801;DHT22;37855;53.204;6.568;2022-07-10T06:50:10;15.40;93.30
51801;DHT22;37855;53.204;6.568;2022-07-10T06:52:36;15.30;93.70
51801;DHT22;37855;53.204;6.568;2022-07-10T06:55:02;15.30;94.10
51801;DHT22;37855;53.204;6.568;2022-07-10T06:57:31;15.30;94.20
51801;DHT22;37855;53.204;6.568;2022-07-10T06:59:56;15.30;94.40
51801;DHT22;37855;53.204;6.568;2022-07-10T07:02:22;15.30;94.40
51801;DHT22;37855;53.204;6.568;2022-07-10T07:04:52;15.30;94.40
51801;DHT22;37855;53.204;6.568;2022-07-10T07:07:17;15.40;94.80
51801;DHT22;37855;53.204;6.568;2022-07-10T07:09:43;15.40;94.80
51801;DHT22;37855;53.204;6.568;2022-07-10T07:12:10;15.40;94.80
51801;DHT22;37855;53.204;6.568;2022-07-10T07:14:36;15.50;94.60
51801;DHT22;37855;53.204;6.568;2022-07-10T07:17:01;15.40;94.60
51801;DHT22;37855;53.204;6.568;2022-07-10T07:19:35;15.40;94.50
51801;DHT22;37855;53.204;6.568;2022-07-10T07:22:20;15.50;94.50
51801;DHT22;37855;53.204;6.568;2022-07-10T07:25:06;15.50;94.90
51801;DHT22;37855;53.204;6.568;2022-07-10T07:27:38;15.40;95.80
51801;DHT22;37855;53.204;6.568;2022-07-10T07:30:09;15.30;96.80
51801;DHT22;37855;53.204;6.568;2022-07-10T07:32:46;15.30;97.70
51801;DHT22;37855;53.204;6.568;2022-07-10T07:35:15;15.20;98.10
51801;DHT22;37855;53.204;6.568;2022-07-10T07:40:29;15.30;98.70
51801;DHT22;37855;53.204;6.568;2022-07-10T07:42:56;15.30;98.60
51801;DHT22;37855;53.204;6.568;2022-07-10T07:45:25;15.30;96.90
51801;DHT22;37855;53.204;6.568;2022-07-10T07:47:57;15.30;96.40
51801;DHT22;37855;53.204;6.568;2022-07-10T07:50:39;15.30;96.60
51801;DHT22;37855;53.204;6.568;2022-07-10T07:53:05;15.40;96.70
51801;DHT22;37855;53.204;6.568;2022-07-10T07:55:35;15.40;96.60
51801;DHT22;37855;53.204;6.568;2022-07-10T07:58:03;15.50;96.50
51801;DHT22;37855;53.204;6.568;2022-07-10T08:00:29;15.50;96.20
51801;DHT22;37855;53.204;6.568;2022-07-10T08:02:58;15.50;96.30
51801;DHT22;37855;53.204;6.568;2022-07-10T08:05:26;15.50;96.10
51801;DHT22;37855;53.204;6.568;2022-07-10T08:07:56;15.50;96.30
51801;DHT22;37855;53.204;6.568;2022-07-10T08:10:24;15.50;96.40
51801;DHT22;37855;53.204;6.568;2022-07-10T08:12:51;15.60;96.40
51801;DHT22;37855;53.204;6.568;2022-07-10T08:15:19;15.60;96.50
51801;DHT22;37855;53.204;6.568;2022-07-10T08:17:48;15.60;96.70
51801;DHT22;37855;53.204;6.568;2022-07-10T08:20:14;15.50;96.90
51801;DHT22;37855;53.204;6.568;2022-07-10T08:22:41;15.50;97.00
51801;DHT22;37855;53.204;6.568;2022-07-10T08:25:07;15.50;97.40
51801;DHT22;37855;53.204;6.568;2022-07-10T08:27:36;15.60;97.70
51801;DHT22;37855;53.204;6.568;2022-07-10T08:30:14;15.60;97.40
51801;DHT22;37855;53.204;6.568;2022-07-10T08:32:40;15.70;97.20
51801;DHT22;37855;53.204;6.568;2022-07-10T08:35:07;15.80;97.00
51801;DHT22;37855;53.204;6.568;2022-07-10T08:37:40;15.90;96.80
51801;DHT22;37855;53.204;6.568;2022-07-10T08:40:13;16.00;96.50
51801;DHT22;37855;53.204;6.568;2022-07-10T08:42:40;16.00;95.40
51801;DHT22;37855;53.204;6.568;2022-07-10T08:45:06;16.10;94.50
51801;DHT22;37855;53.204;6.568;2022-07-10T08:47:36;16.10;93.90
51801;DHT22;37855;53.204;6.568;2022-07-10T08:50:04;16.20;93.50
51801;DHT22;37855;53.204;6.568;2022-07-10T08:52:48;16.30;93.10
51801;DHT22;37855;53.204;6.568;2022-07-10T08:55:20;16.30;92.70
51801;DHT22;37855;53.204;6.568;2022-07-10T08:57:48;16.30;92.10
51801;DHT22;37855;53.204;6.568;2022-07-10T09:00:35;16.40;92.40
51801;DHT22;37855;53.204;6.568;2022-07-10T09:03:01;16.40;93.00
51801;DHT22;37855;53.204;6.568;2022-07-10T09:05:27;16.40;92.90
51801;DHT22;37855;53.204;6.568;2022-07-10T09:07:56;16.40;93.10
51801;DHT22;37855;53.204;6.568;2022-07-10T09:10:32;16.50;93.20
51801;DHT22;37855;53.204;6.568;2022-07-10T09:12:59;16.50;91.90
51801;DHT22;37855;53.204;6.568;2022-07-10T09:15:30;16.50;91.60
51801;DHT22;37855;53.204;6.568;2022-07-10T09:28:33;16.70;90.00
51801;DHT22;37855;53.204;6.568;2022-07-10T09:34:16;16.70;90.50
51801;DHT22;37855;53.204;6.568;2022-07-10T09:36:43;16.90;91.00
51801;DHT22;37855;53.204;6.568;2022-07-10T09:39:08;16.80;91.00
51801;DHT22;37855;53.204;6.568;2022-07-10T09:41:38;16.60;91.50
51801;DHT22;37855;53.204;6.568;2022-07-10T09:44:05;16.40;93.20
51801;DHT22;37855;53.204;6.568;2022-07-10T09:46:36;16.30;94.50
51801;DHT22;37855;53.204;6.568;2022-07-10T09:49:16;16.20;95.50
51801;DHT22;37855;53.204;6.568;2022-07-10T09:51:45;16.10;96.40
51801;DHT22;37855;53.204;6.568;2022-07-10T09:54:12;16.00;96.80
51801;DHT22;37855;53.204;6.568;2022-07-10T09:59:10;15.90;98.60
51801;DHT22;37855;53.204;6.568;2022-07-10T10:01:36;15.80;99.20
51801;DHT22;37855;53.204;6.568;2022-07-10T10:06:56;15.60;99.90
51801;DHT22;37855;53.204;6.568;2022-07-10T10:09:45;15.70;99.90
51801;DHT22;37855;53.204;6.568;2022-07-10T10:12:17;15.70;99.90
51801;DHT22;37855;53.204;6.568;2022-07-10T10:14:47;15.60;99.90
51801;DHT22;37855;53.204;6.568;2022-07-10T10:17:15;15.80;99.90
51801;DHT22;37855;53.204;6.568;2022-07-10T10:19:44;15.80;99.90
51801;DHT22;37855;53.204;6.568;2022-07-10T10:22:29;15.90;99.90
51801;DHT22;37855;53.204;6.568;2022-07-10T10:24:55;15.90;99.90
51801;DHT22;37855;53.204;6.568;2022-07-10T10:27:22;15.90;99.90
51801;DHT22;37855;53.204;6.568;2022-07-10T10:29:48;15.80;99.90
51801;DHT22;37855;53.204;6.568;2022-07-10T10:32:15;15.80;99.90
51801;DHT22;37855;53.204;6.568;2022-07-10T10:34:44;15.80;99.90
51801;DHT22;37855;53.204;6.568;2022-07-10T10:40:02;16.00;99.90
51801;DHT22;37855;53.204;6.568;2022-07-10T10:52:10;16.20;99.90
51801;DHT22;37855;53.204;6.568;2022-07-10T10:55:01;16.20;99.90
51801;DHT22;37855;53.204;6.568;2022-07-10T10:59:59;16.00;99.90
51801;DHT22;37855;53.204;6.568;2022-07-10T11:02:30;16.00;99.90
51801;DHT22;37855;53.204;6.568;2022-07-10T11:08:00;15.90;99.90
51801;DHT22;37855;53.204;6.568;2022-07-10T11:13:18;16.00;99.90
51801;DHT22;37855;53.204;6.568;2022-07-10T11:15:49;16.10;99.90
51801;DHT22;37855;53.204;6.568;2022-07-10T11:18:23;16.20;99.80
51801;DHT22;37855;53.204;6.568;2022-07-10T11:20:54;16.30;99.80
51801;DHT22;37855;53.204;6.568;2022-07-10T11:23:43;16.50;99.90
51801;DHT22;37855;53.204;6.568;2022-07-10T11:26:40;16.60;99.40
51801;DHT22;37855;53.204;6.568;2022-07-10T11:29:24;16.70;98.50
51801;DHT22;37855;53.204;6.568;2022-07-10T11:31:54;16.80;98.30
51801;DHT22;37855;53.204;6.568;2022-07-10T11:34:22;16.70;97.40
51801;DHT22;37855;53.204;6.568;2022-07-10T11:36:48;16.80;97.30
51801;DHT22;37855;53.204;6.568;2022-07-10T11:39:14;16.80;96.90
51801;DHT22;37855;53.204;6.568;2022-07-10T11:41:44;16.90;96.30
51801;DHT22;37855;53.204;6.568;2022-07-10T11:44:17;16.90;95.60
51801;DHT22;37855;53.204;6.568;2022-07-10T11:46:43;16.90;95.60
51801;DHT22;37855;53.204;6.568;2022-07-10T11:49:12;16.90;95.80
51801;DHT22;37855;53.204;6.568;2022-07-10T11:51:41;16.90;95.80
51801;DHT22;37855;53.204;6.568;2022-07-10T11:54:15;17.00;95.30
51801;DHT22;37855;53.204;6.568;2022-07-10T11:56:47;16.80;95.60
51801;DHT22;37855;53.204;6.568;2022-07-10T11:59:14;16.80;95.60
51801;DHT22;37855;53.204;6.568;2022-07-10T12:02:02;16.80;95.60
51801;DHT22;37855;53.204;6.568;2022-07-10T12:04:46;17.10;96.00
51801;DHT22;37855;53.204;6.568;2022-07-10T12:07:20;17.10;96.20
51801;DHT22;37855;53.204;6.568;2022-07-10T12:09:52;17.00;96.30
51801;DHT22;37855;53.204;6.568;2022-07-10T12:12:22;16.80;96.40
51801;DHT22;37855;53.204;6.568;2022-07-10T12:14:48;16.80;95.90
51801;DHT22;37855;53.204;6.568;2022-07-10T12:17:13;16.80;95.70
51801;DHT22;37855;53.204;6.568;2022-07-10T12:19:41;16.80;95.10
51801;DHT22;37855;53.204;6.568;2022-07-10T12:22:08;16.90;94.50
51801;DHT22;37855;53.204;6.568;2022-07-10T12:24:34;16.90;94.20
51801;DHT22;37855;53.204;6.568;2022-07-10T12:27:00;17.00;93.90
51801;DHT22;37855;53.204;6.568;2022-07-10T12:29:30;17.00;93.50
51801;DHT22;37855;53.204;6.568;2022-07-10T12:32:00;17.00;93.50
51801;DHT22;37855;53.204;6.568;2022-07-10T12:34:40;17.20;93.40
51801;DHT22;37855;53.204;6.568;2022-07-10T12:37:08;17.10;92.70
51801;DHT22;37855;53.204;6.568;2022-07-10T12:39:36;17.10;92.50
51801;DHT22;37855;53.204;6.568;2022-07-10T12:42:05;17.00;92.40
51801;DHT22;37855;53.204;6.568;2022-07-10T12:44:43;17.00;92.20
51801;DHT22;37855;53.204;6.568;2022-07-10T12:47:16;17.00;92.60
51801;DHT22;37855;53.204;6.568;2022-07-10T12:49:57;16.90;93.00
51801;DHT22;37855;53.204;6.568;2022-07-10T12:52:33;16.80;93.40
51801;DHT22;37855;53.204;6.568;2022-07-10T13:04:01;16.60;95.80
51801;DHT22;37855;53.204;6.568;2022-07-10T13:06:30;16.40;96.10
51801;DHT22;37855;53.204;6.568;2022-07-10T13:08:56;16.50;96.80
51801;DHT22;37855;53.204;6.568;2022-07-10T13:14:25;16.40;98.40
51801;DHT22;37855;53.204;6.568;2022-07-10T13:16:50;16.40;98.50
51801;DHT22;37855;53.204;6.568;2022-07-10T13:19:17;16.30;98.40
51801;DHT22;37855;53.204;6.568;2022-07-10T13:21:42;16.20;99.00
51801;DHT22;37855;53.204;6.568;2022-07-10T13:34:16;16.50;99.50
51801;DHT22;37855;53.204;6.568;2022-07-10T13:36:43;16.60;99.20
51801;DHT22;37855;53.204;6.568;2022-07-10T13:39:11;16.60;98.60
51801;DHT22;37855;53.204;6.568;2022-07-10T13:50:04;16.80;97.60
51801;DHT22;37855;53.204;6.568;2022-07-10T13:52:35;16.80;97.40
51801;DHT22;37855;53.204;6.568;2022-07-10T13:55:04;16.80;97.40
51801;DHT22;37855;53.204;6.568;2022-07-10T13:57:32;16.90;97.10
51801;DHT22;37855;53.204;6.568;2022-07-10T13:59:59;16.90;96.90
51801;DHT22;37855;53.204;6.568;2022-07-10T14:02:25;16.90;97.10
51801;DHT22;37855;53.204;6.568;2022-07-10T14:04:54;16.90;97.50
51801;DHT22;37855;53.204;6.568;2022-07-10T14:07:24;17.00;97.60
51801;DHT22;37855;53.204;6.568;2022-07-10T14:09:54;17.10;97.60
51801;DHT22;37855;53.204;6.568;2022-07-10T14:12:21;17.20;97.70
51801;DHT22;37855;53.204;6.568;2022-07-10T14:14:47;17.30;97.80
51801;DHT22;37855;53.204;6.568;2022-07-10T14:17:16;17.60;97.30
51801;DHT22;37855;53.204;6.568;2022-07-10T14:23:21;17.30;94.00
51801;DHT22;37855;53.204;6.568;2022-07-10T14:25:48;17.30;94.20
51801;DHT22;37855;53.204;6.568;2022-07-10T14:28:14;17.40;93.50
51801;DHT22;37855;53.204;6.568;2022-07-10T14:30:43;17.40;93.00
51801;DHT22;37855;53.204;6.568;2022-07-10T14:36:13;17.60;92.70
51801;DHT22;37855;53.204;6.568;2022-07-10T14:38:48;17.70;91.90
51801;DHT22;37855;53.204;6.568;2022-07-10T14:41:19;17.70;90.10
51801;DHT22;37855;53.204;6.568;2022-07-10T14:43:52;17.70;90.00
51801;DHT22;37855;53.204;6.568;2022-07-10T14:46:27;17.70;90.00
51801;DHT22;37855;53.204;6.568;2022-07-10T14:48:53;17.80;88.80
51801;DHT22;37855;53.204;6.568;2022-07-10T15:06:26;18.30;85.70
51801;DHT22;37855;53.204;6.568;2022-07-10T15:15:40;18.40;83.50
51801;DHT22;37855;53.204;6.568;2022-07-10T15:18:15;18.50;83.20
51801;DHT22;37855;53.204;6.568;2022-07-10T15:21:20;18.40;82.30
51801;DHT22;37855;53.204;6.568;2022-07-10T15:24:10;18.50;84.10
51801;DHT22;37855;53.204;6.568;2022-07-10T15:26:36;18.50;83.70
51801;DHT22;37855;53.204;6.568;2022-07-10T15:29:02;18.50;83.90
51801;DHT22;37855;53.204;6.568;2022-07-10T15:31:28;18.50;82.90
51801;DHT22;37855;53.204;6.568;2022-07-10T15:33:58;18.50;82.20
51801;DHT22;37855;53.204;6.568;2022-07-10T15:36:24;18.50;82.70
51801;DHT22;37855;53.204;6.568;2022-07-10T15:39:00;18.50;83.00
51801;DHT22;37855;53.204;6.568;2022-07-10T15:41:30;18.50;82.60
51801;DHT22;37855;53.204;6.568;2022-07-10T15:44:07;18.50;82.80
51801;DHT22;37855;53.204;6.568;2022-07-10T15:46:33;18.50;83.30
51801;DHT22;37855;53.204;6.568;2022-07-10T15:49:02;18.60;83.10
51801;DHT22;37855;53.204;6.568;2022-07-10T15:51:33;18.60;82.90
51801;DHT22;37855;53.204;6.568;2022-07-10T15:53:59;18.60;82.80
51801;DHT22;37855;53.204;6.568;2022-07-10T15:56:28;18.60;82.80
51801;DHT22;37855;53.204;6.568;2022-07-10T15:58:54;18.50;83.40
51801;DHT22;37855;53.204;6.568;2022-07-10T16:01:21;18.60;83.70
51801;DHT22;37855;53.204;6.568;2022-07-10T16:03:46;18.60;84.00
51801;DHT22;37855;53.204;6.568;2022-07-10T16:06:15;18.70;84.30
51801;DHT22;37855;53.204;6.568;2022-07-10T16:08:46;18.70;84.30
51801;DHT22;37855;53.204;6.568;2022-07-10T16:11:12;18.70;84.40
51801;DHT22;37855;53.204;6.568;2022-07-10T16:13:39;18.60;84.60
51801;DHT22;37855;53.204;6.568;2022-07-10T16:16:05;18.70;84.70
51801;DHT22;37855;53.204;6.568;2022-07-10T16:18:30;18.70;85.00
51801;DHT22;37855;53.204;6.568;2022-07-10T16:23:39;18.70;85.40
51801;DHT22;37855;53.204;6.568;2022-07-10T16:30:00;18.70;86.10
51801;DHT22;37855;53.204;6.568;2022-07-10T16:32:26;18.70;86.60
51801;DHT22;37855;53.204;6.568;2022-07-10T16:34:52;18.70;86.80
51801;DHT22;37855;53.204;6.568;2022-07-10T16:37:20;18.70;87.00
51801;DHT22;37855;53.204;6.568;2022-07-10T16:39:46;18.70;87.00
51801;DHT22;37855;53.204;6.568;2022-07-10T16:42:11;18.70;87.20
51801;DHT22;37855;53.204;6.568;2022-07-10T16:44:37;18.70;87.40
51801;DHT22;37855;53.204;6.568;2022-07-10T16:47:03;18.70;87.70
51801;DHT22;37855;53.204;6.568;2022-07-10T16:49:29;18.70;87.90
51801;DHT22;37855;53.204;6.568;2022-07-10T16:51:54;18.70;88.20
51801;DHT22;37855;53.204;6.568;2022-07-10T16:54:20;18.70;88.40
51801;DHT22;37855;53.204;6.568;2022-07-10T16:56:45;18.80;88.50
51801;DHT22;37855;53.204;6.568;2022-07-10T16:59:12;18.80;88.60
51801;DHT22;37855;53.204;6.568;2022-07-10T17:01:39;18.80;89.60
51801;DHT22;37855;53.204;6.568;2022-07-10T17:04:04;18.90;90.70
51801;DHT22;37855;53.204;6.568;2022-07-10T17:06:30;18.90;90.30
51801;DHT22;37855;53.204;6.568;2022-07-10T17:08:56;18.90;90.10
51801;DHT22;37855;53.204;6.568;2022-07-10T17:11:21;19.00;90.00
51801;DHT22;37855;53.204;6.568;2022-07-10T17:13:47;19.00;90.20
51801;DHT22;37855;53.204;6.568;2022-07-10T17:16:15;19.10;90.10
51801;DHT22;37855;53.204;6.568;2022-07-10T17:18:46;19.10;90.20
51801;DHT22;37855;53.204;6.568;2022-07-10T17:21:15;19.10;90.40
51801;DHT22;37855;53.204;6.568;2022-07-10T17:23:43;19.10;90.60
51801;DHT22;37855;53.204;6.568;2022-07-10T17:26:08;19.10;90.90
51801;DHT22;37855;53.204;6.568;2022-07-10T17:28:34;19.10;90.90
51801;DHT22;37855;53.204;6.568;2022-07-10T17:31:00;19.00;91.20